sensor_id;sensor_type;location;lat;lon;timestamp;pressure;altitude;pressure_sealevel;temperature;humidity
73551;BME280;61816;53.582;10.096;2023-04-30T00:01:58;54387.19;;;-144.73;100.00
73551;BME280;61816;53.582;10.096;2023-04-30T00:04:23;54411.81;;;-144.73;100.00
73551;BME280;61816;53.582;10.096;2023-04-30T00:06:49;54378.97;;;-144.73;100.00
73551;BME280;61816;53.582;10.096;2023-04-30T00:09:14;54415.91;;;-144.73;100.00
73551;BME280;61816;53.582;10.096;2023-04-30T00:11:40;54383.06;;;-144.73;100.00
73551;BME280;61816;53.582;10.096;2023-04-30T00:14:05;54395.38;;;-144.73;100.00
73551;BME280;61816;53.582;10.096;2023-04-30T00:16:30;54383.06;;;-144.73;100.00
73551;BME280;61816;53.582;10.096;2023-04-30T00:18:56;54428.22;;;-144.73;100.00
73551;BME280;61816;53.582;10.096;2023-04-30T00:21:21;54407.69;;;-144.73;100.00
73551;BME280;61816;53.582;10.096;2023-04-30T00:23:46;54428.22;;;-144.73;100.00
73551;BME280;61816;53.582;10.096;2023-04-30T00:26:12;54428.22;;;-144.73;100.00
73551;BME280;61816;53.582;10.096;2023-04-30T00:28:37;54395.38;;;-144.73;100.00
73551;BME280;61816;53.582;10.096;2023-04-30T00:31:02;54407.69;;;-144.73;100.00
73551;BME280;61816;53.582;10.096;2023-04-30T00:33:31;54426.16;;;-144.73;100.00
73551;BME280;61816;53.582;10.096;2023-04-30T00:35:56;54372.81;;;-144.73;100.00
73551;BME280;61816;53.582;10.096;2023-04-30T00:38:21;54448.75;;;-144.73;100.00
73551;BME280;61816;53.582;10.096;2023-04-30T00:40:47;54397.44;;;-144.73;100.00
73551;BME280;61816;53.582;10.096;2023-04-30T00:43:13;54370.75;;;-144.73;100.00
73551;BME280;61816;53.582;10.096;2023-04-30T00:45:38;54399.50;;;-144.73;100.00
73551;BME280;61816;53.582;10.096;2023-04-30T00:48:03;54378.97;;;-144.73;100.00
73551;BME280;61816;53.582;10.096;2023-04-30T00:50:29;54370.75;;;-144.73;100.00
73551;BME280;61816;53.582;10.096;2023-04-30T00:52:54;54407.69;;;-144.73;100.00
73551;BME280;61816;53.582;10.096;2023-04-30T00:55:20;54399.50;;;-144.73;100.00
73551;BME280;61816;53.582;10.096;2023-04-30T00:57:46;54383.06;;;-144.73;100.00
73551;BME280;61816;53.582;10.096;2023-04-30T01:00:11;54364.59;;;-144.73;100.00
73551;BME280;61816;53.582;10.096;2023-04-30T01:02:39;54415.91;;;-144.73;100.00
73551;BME280;61816;53.582;10.096;2023-04-30T01:05:05;54395.38;;;-144.73;100.00
73551;BME280;61816;53.582;10.096;2023-04-30T01:07:31;54358.44;;;-144.73;100.00
73551;BME280;61816;53.582;10.096;2023-04-30T01:09:56;54383.06;;;-144.73;100.00
73551;BME280;61816;53.582;10.096;2023-04-30T01:12:35;54407.69;;;-144.73;100.00
73551;BME280;61816;53.582;10.096;2023-04-30T01:15:13;54415.91;;;-144.73;100.00
73551;BME280;61816;53.582;10.096;2023-04-30T01:17:55;54387.19;;;-144.73;100.00
73551;BME280;61816;53.582;10.096;2023-04-30T01:20:21;54411.81;;;-144.73;100.00
73551;BME280;61816;53.582;10.096;2023-04-30T01:22:52;54374.84;;;-144.73;100.00
73551;BME280;61816;53.582;10.096;2023-04-30T01:25:35;54409.75;;;-144.73;100.00
73551;BME280;61816;53.582;10.096;2023-04-30T01:28:12;54383.06;;;-144.73;100.00
73551;BME280;61816;53.582;10.096;2023-04-30T01:30:40;54370.75;;;-144.73;100.00
73551;BME280;61816;53.582;10.096;2023-04-30T01:33:09;54378.97;;;-144.73;100.00
73551;BME280;61816;53.582;10.096;2023-04-30T01:36:04;54436.44;;;-144.73;100.00
73551;BME280;61816;53.582;10.096;2023-04-30T01:38:49;54436.44;;;-144.73;100.00
73551;BME280;61816;53.582;10.096;2023-04-30T01:44:16;54391.28;;;-144.73;100.00
73551;BME280;61816;53.582;10.096;2023-04-30T01:46:57;54407.69;;;-144.73;100.00
73551;BME280;61816;53.582;10.096;2023-04-30T01:49:34;54407.69;;;-144.73;100.00
73551;BME280;61816;53.582;10.096;2023-04-30T01:52:12;54356.38;;;-144.73;100.00
73551;BME280;61816;53.582;10.096;2023-04-30T01:57:15;54383.06;;;-144.73;100.00
73551;BME280;61816;53.582;10.096;2023-04-30T01:59:42;54407.69;;;-144.73;100.00
73551;BME280;61816;53.582;10.096;2023-04-30T02:02:07;54366.66;;;-144.73;100.00
73551;BME280;61816;53.582;10.096;2023-04-30T02:04:33;54389.22;;;-144.73;100.00
73551;BME280;61816;53.582;10.096;2023-04-30T02:06:58;54337.91;;;-144.73;100.00
73551;BME280;61816;53.582;10.096;2023-04-30T02:09:24;54395.38;;;-144.73;100.00
73551;BME280;61816;53.582;10.096;2023-04-30T02:11:49;54378.97;;;-144.73;100.00
73551;BME280;61816;53.582;10.096;2023-04-30T02:14:15;54393.34;;;-144.73;100.00
73551;BME280;61816;53.582;10.096;2023-04-30T02:16:40;54407.69;;;-144.73;100.00
73551;BME280;61816;53.582;10.096;2023-04-30T02:19:06;54428.22;;;-144.73;100.00
73551;BME280;61816;53.582;10.096;2023-04-30T02:21:31;54387.19;;;-144.73;100.00
73551;BME280;61816;53.582;10.096;2023-04-30T02:23:57;54432.31;;;-144.73;100.00
73551;BME280;61816;53.582;10.096;2023-04-30T02:26:22;54411.81;;;-144.73;100.00
73551;BME280;61816;53.582;10.096;2023-04-30T02:28:47;54374.84;;;-144.73;100.00
73551;BME280;61816;53.582;10.096;2023-04-30T02:31:13;54415.91;;;-144.73;100.00
73551;BME280;61816;53.582;10.096;2023-04-30T02:33:38;54407.69;;;-144.73;100.00
73551;BME280;61816;53.582;10.096;2023-04-30T02:36:04;54391.28;;;-144.73;100.00
73551;BME280;61816;53.582;10.096;2023-04-30T02:38:29;54436.44;;;-144.73;100.00
73551;BME280;61816;53.582;10.096;2023-04-30T02:40:54;54411.81;;;-144.73;100.00
73551;BME280;61816;53.582;10.096;2023-04-30T02:43:20;54370.75;;;-144.73;100.00
73551;BME280;61816;53.582;10.096;2023-04-30T02:45:45;54407.69;;;-144.73;100.00
73551;BME280;61816;53.582;10.096;2023-04-30T02:48:10;54399.50;;;-144.73;100.00
73551;BME280;61816;53.582;10.096;2023-04-30T02:50:36;54395.38;;;-144.73;100.00
73551;BME280;61816;53.582;10.096;2023-04-30T02:53:01;54407.69;;;-144.73;100.00
73551;BME280;61816;53.582;10.096;2023-04-30T02:55:26;54407.69;;;-144.73;100.00
73551;BME280;61816;53.582;10.096;2023-04-30T02:57:52;54393.34;;;-144.73;100.00
73551;BME280;61816;53.582;10.096;2023-04-30T03:00:17;54407.69;;;-144.73;100.00
73551;BME280;61816;53.582;10.096;2023-04-30T03:02:43;54372.81;;;-144.73;100.00
73551;BME280;61816;53.582;10.096;2023-04-30T03:05:08;54411.81;;;-144.73;100.00
73551;BME280;61816;53.582;10.096;2023-04-30T03:07:34;54420.00;;;-144.73;100.00
73551;BME280;61816;53.582;10.096;2023-04-30T03:10:00;54350.22;;;-144.73;100.00
73551;BME280;61816;53.582;10.096;2023-04-30T03:12:25;54374.84;;;-144.73;100.00
73551;BME280;61816;53.582;10.096;2023-04-30T03:14:50;54366.66;;;-144.73;100.00
73551;BME280;61816;53.582;10.096;2023-04-30T03:17:16;54407.69;;;-144.73;100.00
73551;BME280;61816;53.582;10.096;2023-04-30T03:19:41;54407.69;;;-144.73;100.00
73551;BME280;61816;53.582;10.096;2023-04-30T03:22:07;54372.81;;;-144.73;100.00
73551;BME280;61816;53.582;10.096;2023-04-30T03:24:32;54407.69;;;-144.73;100.00
73551;BME280;61816;53.582;10.096;2023-04-30T03:26:57;54383.06;;;-144.73;100.00
73551;BME280;61816;53.582;10.096;2023-04-30T03:29:23;54436.44;;;-144.73;100.00
73551;BME280;61816;53.582;10.096;2023-04-30T03:31:48;54420.00;;;-144.73;100.00
73551;BME280;61816;53.582;10.096;2023-04-30T03:34:14;54395.38;;;-144.73;100.00
73551;BME280;61816;53.582;10.096;2023-04-30T03:36:39;54391.28;;;-144.73;100.00
73551;BME280;61816;53.582;10.096;2023-04-30T03:39:04;54440.53;;;-144.73;100.00
73551;BME280;61816;53.582;10.096;2023-04-30T03:41:30;54337.91;;;-144.73;100.00
73551;BME280;61816;53.582;10.096;2023-04-30T03:43:55;54411.81;;;-144.73;100.00
73551;BME280;61816;53.582;10.096;2023-04-30T03:46:21;54415.91;;;-144.73;100.00
73551;BME280;61816;53.582;10.096;2023-04-30T03:48:46;54397.44;;;-144.73;100.00
73551;BME280;61816;53.582;10.096;2023-04-30T03:51:11;54358.44;;;-144.73;100.00
73551;BME280;61816;53.582;10.096;2023-04-30T03:53:37;54424.13;;;-144.73;100.00
73551;BME280;61816;53.582;10.096;2023-04-30T03:56:03;54381.00;;;-144.73;100.00
73551;BME280;61816;53.582;10.096;2023-04-30T03:58:29;54411.81;;;-144.73;100.00
73551;BME280;61816;53.582;10.096;2023-04-30T04:00:54;54391.28;;;-144.73;100.00
73551;BME280;61816;53.582;10.096;2023-04-30T04:03:20;54426.16;;;-144.73;100.00
73551;BME280;61816;53.582;10.096;2023-04-30T04:05:46;54413.84;;;-144.73;100.00
73551;BME280;61816;53.582;10.096;2023-04-30T04:08:11;54428.22;;;-144.73;100.00
73551;BME280;61816;53.582;10.096;2023-04-30T04:10:37;54381.00;;;-144.73;100.00
73551;BME280;61816;53.582;10.096;2023-04-30T04:13:03;54395.38;;;-144.73;100.00
73551;BME280;61816;53.582;10.096;2023-04-30T04:15:28;54370.75;;;-144.73;100.00
73551;BME280;61816;53.582;10.096;2023-04-30T04:17:53;54407.69;;;-144.73;100.00
73551;BME280;61816;53.582;10.096;2023-04-30T04:20:19;54362.53;;;-144.73;100.00
73551;BME280;61816;53.582;10.096;2023-04-30T04:22:44;54399.50;;;-144.73;100.00
73551;BME280;61816;53.582;10.096;2023-04-30T04:25:09;54417.97;;;-144.73;100.00
73551;BME280;61816;53.582;10.096;2023-04-30T04:27:35;54370.75;;;-144.73;100.00
73551;BME280;61816;53.582;10.096;2023-04-30T04:30:02;54391.28;;;-144.73;100.00
73551;BME280;61816;53.582;10.096;2023-04-30T04:32:27;54366.66;;;-144.73;100.00
73551;BME280;61816;53.582;10.096;2023-04-30T04:34:54;54383.06;;;-144.73;100.00
73551;BME280;61816;53.582;10.096;2023-04-30T04:37:21;54378.97;;;-144.73;100.00
73551;BME280;61816;53.582;10.096;2023-04-30T04:39:46;54391.28;;;-144.73;100.00
73551;BME280;61816;53.582;10.096;2023-04-30T04:42:13;54407.69;;;-144.73;100.00
73551;BME280;61816;53.582;10.096;2023-04-30T04:44:38;54407.69;;;-144.73;100.00
73551;BME280;61816;53.582;10.096;2023-04-30T04:47:05;54434.38;;;-144.73;100.00
73551;BME280;61816;53.582;10.096;2023-04-30T04:49:30;54432.31;;;-144.73;100.00
73551;BME280;61816;53.582;10.096;2023-04-30T04:51:56;54415.91;;;-144.73;100.00
73551;BME280;61816;53.582;10.096;2023-04-30T04:54:21;54417.97;;;-144.73;100.00
73551;BME280;61816;53.582;10.096;2023-04-30T04:56:46;54440.53;;;-144.73;100.00
73551;BME280;61816;53.582;10.096;2023-04-30T04:59:12;54440.53;;;-144.73;100.00
73551;BME280;61816;53.582;10.096;2023-04-30T05:01:38;54374.84;;;-144.73;100.00
73551;BME280;61816;53.582;10.096;2023-04-30T05:04:03;54399.50;;;-144.73;100.00
73551;BME280;61816;53.582;10.096;2023-04-30T05:06:28;54442.59;;;-144.73;100.00
73551;BME280;61816;53.582;10.096;2023-04-30T05:08:54;54387.19;;;-144.73;100.00
73551;BME280;61816;53.582;10.096;2023-04-30T05:11:20;54383.06;;;-144.73;100.00
73551;BME280;61816;53.582;10.096;2023-04-30T05:13:46;54399.50;;;-144.73;100.00
73551;BME280;61816;53.582;10.096;2023-04-30T05:16:11;54395.38;;;-144.73;100.00
73551;BME280;61816;53.582;10.096;2023-04-30T05:18:37;54420.00;;;-144.73;100.00
73551;BME280;61816;53.582;10.096;2023-04-30T05:21:02;54366.66;;;-144.73;100.00
73551;BME280;61816;53.582;10.096;2023-04-30T05:23:28;54417.97;;;-144.73;100.00
73551;BME280;61816;53.582;10.096;2023-04-30T05:25:53;54383.06;;;-144.73;100.00
73551;BME280;61816;53.582;10.096;2023-04-30T05:28:19;54411.81;;;-144.73;100.00
73551;BME280;61816;53.582;10.096;2023-04-30T05:30:44;54383.06;;;-144.73;100.00
73551;BME280;61816;53.582;10.096;2023-04-30T05:33:10;54407.69;;;-144.73;100.00
73551;BME280;61816;53.582;10.096;2023-04-30T05:35:35;54450.81;;;-144.73;100.00
73551;BME280;61816;53.582;10.096;2023-04-30T05:38:01;54391.28;;;-144.73;100.00
73551;BME280;61816;53.582;10.096;2023-04-30T05:40:27;54378.97;;;-144.73;100.00
73551;BME280;61816;53.582;10.096;2023-04-30T05:42:53;54358.44;;;-144.73;100.00
73551;BME280;61816;53.582;10.096;2023-04-30T05:45:18;54411.81;;;-144.73;100.00
73551;BME280;61816;53.582;10.096;2023-04-30T05:47:44;54370.75;;;-144.73;100.00
73551;BME280;61816;53.582;10.096;2023-04-30T05:50:09;54424.13;;;-144.73;100.00
73551;BME280;61816;53.582;10.096;2023-04-30T05:52:35;54370.75;;;-144.73;100.00
73551;BME280;61816;53.582;10.096;2023-04-30T05:55:00;54411.81;;;-144.73;100.00
73551;BME280;61816;53.582;10.096;2023-04-30T05:57:25;54432.31;;;-144.73;100.00
73551;BME280;61816;53.582;10.096;2023-04-30T05:59:51;54391.28;;;-144.73;100.00
73551;BME280;61816;53.582;10.096;2023-04-30T06:02:16;54383.06;;;-144.73;98.73
73551;BME280;61816;53.582;10.096;2023-04-30T06:04:41;54444.66;;;-144.73;98.48
73551;BME280;61816;53.582;10.096;2023-04-30T06:07:07;54387.19;;;-144.73;98.17
73551;BME280;61816;53.582;10.096;2023-04-30T06:09:33;54407.69;;;-144.73;94.03
73551;BME280;61816;53.582;10.096;2023-04-30T06:11:58;54368.69;;;-144.73;92.78
73551;BME280;61816;53.582;10.096;2023-04-30T06:14:24;54395.38;;;-144.73;91.92
73551;BME280;61816;53.582;10.096;2023-04-30T06:16:49;54411.81;;;-144.73;91.03
73551;BME280;61816;53.582;10.096;2023-04-30T06:19:15;54424.13;;;-144.73;90.23
73551;BME280;61816;53.582;10.096;2023-04-30T06:21:40;54407.69;;;-144.73;88.33
73551;BME280;61816;53.582;10.096;2023-04-30T06:24:08;54407.69;;;-144.73;87.46
73551;BME280;61816;53.582;10.096;2023-04-30T06:26:33;54393.34;;;-144.73;86.65
73551;BME280;61816;53.582;10.096;2023-04-30T06:28:59;54411.81;;;-144.73;82.81
73551;BME280;61816;53.582;10.096;2023-04-30T06:31:25;54370.75;;;-144.73;83.01
73551;BME280;61816;53.582;10.096;2023-04-30T06:33:50;54411.81;;;-144.73;82.73
73551;BME280;61816;53.582;10.096;2023-04-30T06:36:16;54417.97;;;-144.73;83.40
73551;BME280;61816;53.582;10.096;2023-04-30T06:38:42;54387.19;;;-144.73;81.93
73551;BME280;61816;53.582;10.096;2023-04-30T06:41:08;54383.06;;;-144.73;82.54
73551;BME280;61816;53.582;10.096;2023-04-30T06:43:33;54424.13;;;-144.73;81.36
73551;BME280;61816;53.582;10.096;2023-04-30T06:45:59;54407.69;;;-144.73;79.38
73551;BME280;61816;53.582;10.096;2023-04-30T06:48:25;54378.97;;;-144.73;80.67
73551;BME280;61816;53.582;10.096;2023-04-30T06:50:50;54424.13;;;-144.73;77.25
73551;BME280;61816;53.582;10.096;2023-04-30T06:53:15;54370.75;;;-144.73;78.98
73551;BME280;61816;53.582;10.096;2023-04-30T06:55:41;54368.69;;;-144.73;79.44
73551;BME280;61816;53.582;10.096;2023-04-30T06:58:07;54387.19;;;-144.73;77.14
73551;BME280;61816;53.582;10.096;2023-04-30T07:00:33;54354.34;;;-144.73;76.54
73551;BME280;61816;53.582;10.096;2023-04-30T07:02:59;54364.59;;;-144.73;72.93
73551;BME280;61816;53.582;10.096;2023-04-30T07:05:27;54395.38;;;-144.73;71.81
73551;BME280;61816;53.582;10.096;2023-04-30T07:07:52;54383.06;;;-144.73;72.53
73551;BME280;61816;53.582;10.096;2023-04-30T07:10:18;54424.13;;;-144.73;70.96
73551;BME280;61816;53.582;10.096;2023-04-30T07:12:44;54383.06;;;-144.73;70.33
73551;BME280;61816;53.582;10.096;2023-04-30T07:15:09;54383.06;;;-144.73;69.91
73551;BME280;61816;53.582;10.096;2023-04-30T07:17:35;54391.28;;;-144.73;69.33
73551;BME280;61816;53.582;10.096;2023-04-30T07:20:01;54395.38;;;-144.73;68.61
73551;BME280;61816;53.582;10.096;2023-04-30T07:22:28;54407.69;;;-144.73;68.60
73551;BME280;61816;53.582;10.096;2023-04-30T07:24:54;54424.13;;;-144.73;68.65
73551;BME280;61816;53.582;10.096;2023-04-30T07:27:19;54333.81;;;-144.73;67.76
73551;BME280;61816;53.582;10.096;2023-04-30T07:29:45;54383.06;;;-144.73;67.84
73551;BME280;61816;53.582;10.096;2023-04-30T07:32:10;54350.22;;;-144.73;66.08
73551;BME280;61816;53.582;10.096;2023-04-30T07:34:35;54395.38;;;-144.73;64.99
73551;BME280;61816;53.582;10.096;2023-04-30T07:37:01;54376.91;;;-144.73;64.07
73551;BME280;61816;53.582;10.096;2023-04-30T07:39:27;54346.13;;;-144.73;63.70
73551;BME280;61816;53.582;10.096;2023-04-30T07:41:53;54325.59;;;-144.73;63.53
73551;BME280;61816;53.582;10.096;2023-04-30T07:44:18;54342.03;;;-144.73;62.12
73551;BME280;61816;53.582;10.096;2023-04-30T07:46:43;54354.34;;;-144.73;60.39
73551;BME280;61816;53.582;10.096;2023-04-30T07:49:09;54391.28;;;-144.73;61.44
73551;BME280;61816;53.582;10.096;2023-04-30T07:51:34;54378.97;;;-144.73;61.49
73551;BME280;61816;53.582;10.096;2023-04-30T07:54:00;54387.19;;;-144.73;62.20
73551;BME280;61816;53.582;10.096;2023-04-30T07:56:25;54370.75;;;-144.73;61.98
73551;BME280;61816;53.582;10.096;2023-04-30T07:58:51;54366.66;;;-144.73;63.48
73551;BME280;61816;53.582;10.096;2023-04-30T08:01:16;54370.75;;;-144.73;63.40
73551;BME280;61816;53.582;10.096;2023-04-30T08:03:42;54366.66;;;-144.73;60.98
73551;BME280;61816;53.582;10.096;2023-04-30T08:06:07;54374.84;;;-144.73;59.94
73551;BME280;61816;53.582;10.096;2023-04-30T08:08:32;54325.59;;;-144.73;58.41
73551;BME280;61816;53.582;10.096;2023-04-30T08:11:00;54370.75;;;-144.73;58.46
73551;BME280;61816;53.582;10.096;2023-04-30T08:13:27;54383.06;;;-144.73;56.99
73551;BME280;61816;53.582;10.096;2023-04-30T08:15:52;54333.81;;;-144.73;56.79
73551;BME280;61816;53.582;10.096;2023-04-30T08:18:18;54342.03;;;-144.73;57.20
73551;BME280;61816;53.582;10.096;2023-04-30T08:20:44;54327.66;;;-144.73;56.67
73551;BME280;61816;53.582;10.096;2023-04-30T08:23:09;54337.91;;;-144.73;56.14
73551;BME280;61816;53.582;10.096;2023-04-30T08:25:35;54362.53;;;-144.73;59.85
73551;BME280;61816;53.582;10.096;2023-04-30T08:28:01;54329.72;;;-144.73;60.37
73551;BME280;61816;53.582;10.096;2023-04-30T08:30:27;54317.38;;;-144.73;59.75
73551;BME280;61816;53.582;10.096;2023-04-30T08:32:52;54346.13;;;-144.73;58.58
73551;BME280;61816;53.582;10.096;2023-04-30T08:35:20;54329.72;;;-144.73;56.78
73551;BME280;61816;53.582;10.096;2023-04-30T08:37:45;54366.66;;;-144.73;57.53
73551;BME280;61816;53.582;10.096;2023-04-30T08:40:11;54333.81;;;-144.73;57.95
73551;BME280;61816;53.582;10.096;2023-04-30T08:42:40;54331.75;;;-144.73;57.24
73551;BME280;61816;53.582;10.096;2023-04-30T08:45:10;54337.91;;;-144.73;56.74
73551;BME280;61816;53.582;10.096;2023-04-30T08:47:37;54339.97;;;-144.73;54.85
73551;BME280;61816;53.582;10.096;2023-04-30T08:50:04;54358.44;;;-144.73;54.21
73551;BME280;61816;53.582;10.096;2023-04-30T08:52:33;54325.59;;;-144.73;53.77
73551;BME280;61816;53.582;10.096;2023-04-30T08:55:00;54346.13;;;-144.73;55.27
73551;BME280;61816;53.582;10.096;2023-04-30T08:57:25;54333.81;;;-144.73;55.02
73551;BME280;61816;53.582;10.096;2023-04-30T08:59:51;54337.91;;;-144.73;54.17
73551;BME280;61816;53.582;10.096;2023-04-30T09:02:16;54307.13;;;-144.73;55.05
73551;BME280;61816;53.582;10.096;2023-04-30T09:04:42;54333.81;;;-144.73;53.02
73551;BME280;61816;53.582;10.096;2023-04-30T09:07:08;54358.44;;;-144.73;52.20
73551;BME280;61816;53.582;10.096;2023-04-30T09:09:37;54346.13;;;-144.73;52.68
73551;BME280;61816;53.582;10.096;2023-04-30T09:12:14;54376.91;;;-144.73;53.53
73551;BME280;61816;53.582;10.096;2023-04-30T09:14:40;54321.50;;;-144.73;52.42
73551;BME280;61816;53.582;10.096;2023-04-30T09:17:06;54337.91;;;-144.73;51.03
73551;BME280;61816;53.582;10.096;2023-04-30T09:19:36;54342.03;;;-144.73;50.71
73551;BME280;61816;53.582;10.096;2023-04-30T09:22:21;54337.91;;;-144.73;53.25
73551;BME280;61816;53.582;10.096;2023-04-30T09:24:49;54337.91;;;-144.73;55.27
73551;BME280;61816;53.582;10.096;2023-04-30T09:27:19;54370.75;;;-144.73;54.53
73551;BME280;61816;53.582;10.096;2023-04-30T09:29:45;54362.53;;;-144.73;53.53
73551;BME280;61816;53.582;10.096;2023-04-30T09:32:11;54311.22;;;-144.73;53.16
73551;BME280;61816;53.582;10.096;2023-04-30T09:34:36;54325.59;;;-144.73;51.22
73551;BME280;61816;53.582;10.096;2023-04-30T09:37:02;54370.75;;;-144.73;50.98
73551;BME280;61816;53.582;10.096;2023-04-30T09:39:28;54366.66;;;-144.73;50.25
73551;BME280;61816;53.582;10.096;2023-04-30T09:42:06;54333.81;;;-144.73;52.46
73551;BME280;61816;53.582;10.096;2023-04-30T09:44:36;54305.06;;;-144.73;51.53
73551;BME280;61816;53.582;10.096;2023-04-30T09:47:02;54354.34;;;-144.73;53.94
73551;BME280;61816;53.582;10.096;2023-04-30T09:49:27;54317.38;;;-144.73;52.28
73551;BME280;61816;53.582;10.096;2023-04-30T09:51:58;54385.13;;;-144.73;50.02
73551;BME280;61816;53.582;10.096;2023-04-30T09:54:30;54354.34;;;-144.73;51.25
73551;BME280;61816;53.582;10.096;2023-04-30T09:56:58;54325.59;;;-144.73;51.94
73551;BME280;61816;53.582;10.096;2023-04-30T09:59:33;54300.97;;;-144.73;50.07
73551;BME280;61816;53.582;10.096;2023-04-30T10:02:05;54337.91;;;-144.73;48.82
73551;BME280;61816;53.582;10.096;2023-04-30T10:04:35;54331.75;;;-144.73;50.04
73551;BME280;61816;53.582;10.096;2023-04-30T10:07:11;54350.22;;;-144.73;50.00
73551;BME280;61816;53.582;10.096;2023-04-30T10:09:40;54342.03;;;-144.73;50.47
73551;BME280;61816;53.582;10.096;2023-04-30T10:12:19;54356.38;;;-144.73;50.05
73551;BME280;61816;53.582;10.096;2023-04-30T10:14:54;54313.28;;;-144.73;49.65
73551;BME280;61816;53.582;10.096;2023-04-30T10:17:25;54333.81;;;-144.73;50.20
73551;BME280;61816;53.582;10.096;2023-04-30T10:19:53;54329.72;;;-144.73;48.00
73551;BME280;61816;53.582;10.096;2023-04-30T10:22:21;54366.66;;;-144.73;46.40
73551;BME280;61816;53.582;10.096;2023-04-30T10:24:48;54339.97;;;-144.73;45.42
73551;BME280;61816;53.582;10.096;2023-04-30T10:27:14;54339.97;;;-144.73;46.13
73551;BME280;61816;53.582;10.096;2023-04-30T10:29:40;54325.59;;;-144.73;45.46
73551;BME280;61816;53.582;10.096;2023-04-30T10:32:07;54362.53;;;-144.73;44.30
73551;BME280;61816;53.582;10.096;2023-04-30T10:34:54;54346.13;;;-144.73;43.96
73551;BME280;61816;53.582;10.096;2023-04-30T10:37:29;54309.19;;;-144.73;43.78
73551;BME280;61816;53.582;10.096;2023-04-30T10:39:55;54356.38;;;-144.73;47.28
73551;BME280;61816;53.582;10.096;2023-04-30T10:42:21;54325.59;;;-144.73;48.19
73551;BME280;61816;53.582;10.096;2023-04-30T10:44:46;54327.66;;;-144.73;46.43
73551;BME280;61816;53.582;10.096;2023-04-30T10:47:13;54350.22;;;-144.73;46.22
73551;BME280;61816;53.582;10.096;2023-04-30T10:49:44;54331.75;;;-144.73;46.23
73551;BME280;61816;53.582;10.096;2023-04-30T10:52:12;54276.34;;;-144.73;44.67
73551;BME280;61816;53.582;10.096;2023-04-30T10:54:38;54276.34;;;-144.73;44.30
73551;BME280;61816;53.582;10.096;2023-04-30T10:57:08;54350.22;;;-144.73;42.72
73551;BME280;61816;53.582;10.096;2023-04-30T10:59:35;54292.75;;;-144.73;41.30
73551;BME280;61816;53.582;10.096;2023-04-30T11:02:01;54329.72;;;-144.73;42.46
73551;BME280;61816;53.582;10.096;2023-04-30T11:04:27;54337.91;;;-144.73;42.13
73551;BME280;61816;53.582;10.096;2023-04-30T11:09:42;54331.75;;;-144.73;40.81
73551;BME280;61816;53.582;10.096;2023-04-30T11:12:18;54358.44;;;-144.73;41.68
73551;BME280;61816;53.582;10.096;2023-04-30T11:14:45;54300.97;;;-144.73;41.80
73551;BME280;61816;53.582;10.096;2023-04-30T11:17:13;54346.13;;;-144.73;42.06
73551;BME280;61816;53.582;10.096;2023-04-30T11:19:47;54305.06;;;-144.73;42.16
73551;BME280;61816;53.582;10.096;2023-04-30T11:25:09;54329.72;;;-144.73;41.90
73551;BME280;61816;53.582;10.096;2023-04-30T11:27:40;54294.81;;;-144.73;41.83
73551;BME280;61816;53.582;10.096;2023-04-30T11:30:17;54348.19;;;-144.73;40.82
73551;BME280;61816;53.582;10.096;2023-04-30T11:32:45;54305.06;;;-144.73;39.41
73551;BME280;61816;53.582;10.096;2023-04-30T11:35:12;54292.75;;;-144.73;38.51
73551;BME280;61816;53.582;10.096;2023-04-30T11:37:42;54329.72;;;-144.73;37.67
73551;BME280;61816;53.582;10.096;2023-04-30T11:40:12;54305.06;;;-144.73;38.31
73551;BME280;61816;53.582;10.096;2023-04-30T11:42:40;54309.19;;;-144.73;39.05
73551;BME280;61816;53.582;10.096;2023-04-30T11:45:06;54282.50;;;-144.73;39.11
73551;BME280;61816;53.582;10.096;2023-04-30T11:47:43;54305.06;;;-144.73;38.94
73551;BME280;61816;53.582;10.096;2023-04-30T11:50:11;54344.06;;;-144.73;37.77
73551;BME280;61816;53.582;10.096;2023-04-30T11:52:38;54309.19;;;-144.73;38.97
73551;BME280;61816;53.582;10.096;2023-04-30T11:55:14;54321.50;;;-144.73;38.17
73551;BME280;61816;53.582;10.096;2023-04-30T11:57:44;54305.06;;;-144.73;37.50
73551;BME280;61816;53.582;10.096;2023-04-30T12:00:19;54300.97;;;-144.73;35.66
73551;BME280;61816;53.582;10.096;2023-04-30T12:02:47;54321.50;;;-144.73;35.99
73551;BME280;61816;53.582;10.096;2023-04-30T12:07:49;54268.13;;;-144.73;35.92
73551;BME280;61816;53.582;10.096;2023-04-30T12:10:18;54317.38;;;-144.73;35.25
73551;BME280;61816;53.582;10.096;2023-04-30T12:12:43;54292.75;;;-144.73;34.35
73551;BME280;61816;53.582;10.096;2023-04-30T12:15:16;54300.97;;;-144.73;35.96
73551;BME280;61816;53.582;10.096;2023-04-30T12:17:42;54309.19;;;-144.73;35.71
73551;BME280;61816;53.582;10.096;2023-04-30T12:20:09;54288.66;;;-144.73;35.35
73551;BME280;61816;53.582;10.096;2023-04-30T12:22:35;54329.72;;;-144.73;35.07
73551;BME280;61816;53.582;10.096;2023-04-30T12:25:12;54284.56;;;-144.73;33.75
73551;BME280;61816;53.582;10.096;2023-04-30T12:27:44;54329.72;;;-144.73;33.62
73551;BME280;61816;53.582;10.096;2023-04-30T12:30:10;54309.19;;;-144.73;35.13
73551;BME280;61816;53.582;10.096;2023-04-30T12:32:45;54333.81;;;-144.73;34.75
73551;BME280;61816;53.582;10.096;2023-04-30T12:35:17;54317.38;;;-144.73;34.64
73551;BME280;61816;53.582;10.096;2023-04-30T12:37:49;54280.44;;;-144.73;33.42
73551;BME280;61816;53.582;10.096;2023-04-30T12:40:26;54264.03;;;-144.73;34.16